sensor_id;sensor_type;location;lat;lon;timestamp;pressure;altitude;pressure_sealevel;temperature;humidity
59272;BME280;45043;51.068;7.026;2023-04-07T00:01:58;100224.66;;;4.43;71.49
59272;BME280;45043;51.068;7.026;2023-04-07T00:04:59;100229.28;;;4.50;71.40
59272;BME280;45043;51.068;7.026;2023-04-07T00:07:59;100231.59;;;4.61;71.39
59272;BME280;45043;51.068;7.026;2023-04-07T00:11:00;100228.81;;;4.54;71.11
59272;BME280;45043;51.068;7.026;2023-04-07T00:14:00;100227.31;;;4.52;71.43
59272;BME280;45043;51.068;7.026;2023-04-07T00:17:01;100225.66;;;4.51;71.57
59272;BME280;45043;51.068;7.026;2023-04-07T00:20:01;100227.81;;;4.55;71.68
59272;BME280;45043;51.068;7.026;2023-04-07T00:23:02;100220.72;;;4.56;71.63
59272;BME280;45043;51.068;7.026;2023-04-07T00:26:02;100225.19;;;4.55;71.58
59272;BME280;45043;51.068;7.026;2023-04-07T00:29:03;100225.03;;;4.57;71.85
59272;BME280;45043;51.068;7.026;2023-04-07T00:32:03;100222.72;;;4.62;71.54
59272;BME280;45043;51.068;7.026;2023-04-07T00:35:04;100221.22;;;4.67;71.37
59272;BME280;45043;51.068;7.026;2023-04-07T00:38:05;100215.31;;;4.65;71.64
59272;BME280;45043;51.068;7.026;2023-04-07T00:41:06;100226.34;;;4.69;71.66
59272;BME280;45043;51.068;7.026;2023-04-07T00:44:06;100212.88;;;4.72;71.31
59272;BME280;45043;51.068;7.026;2023-04-07T00:47:07;100222.25;;;4.83;71.45
59272;BME280;45043;51.068;7.026;2023-04-07T00:50:08;100221.56;;;4.89;71.38
59272;BME280;45043;51.068;7.026;2023-04-07T00:53:08;100207.25;;;4.91;71.53
59272;BME280;45043;51.068;7.026;2023-04-07T00:56:10;100212.84;;;4.88;71.35
59272;BME280;45043;51.068;7.026;2023-04-07T00:59:10;100205.94;;;4.87;70.95
59272;BME280;45043;51.068;7.026;2023-04-07T01:02:25;100205.13;;;4.87;70.79
59272;BME280;45043;51.068;7.026;2023-04-07T01:05:36;100203.63;;;4.92;71.61
59272;BME280;45043;51.068;7.026;2023-04-07T01:08:51;100199.84;;;4.95;70.92
59272;BME280;45043;51.068;7.026;2023-04-07T01:15:08;100207.41;;;5.06;71.00
59272;BME280;45043;51.068;7.026;2023-04-07T01:18:21;100210.84;;;5.07;70.56
59272;BME280;45043;51.068;7.026;2023-04-07T01:21:26;100196.69;;;5.08;70.70
59272;BME280;45043;51.068;7.026;2023-04-07T01:27:54;100200.34;;;4.90;70.85
59272;BME280;45043;51.068;7.026;2023-04-07T01:30:59;100204.97;;;4.80;71.09
59272;BME280;45043;51.068;7.026;2023-04-07T01:34:02;100206.78;;;4.80;71.62
59272;BME280;45043;51.068;7.026;2023-04-07T01:37:03;100203.47;;;4.78;71.30
59272;BME280;45043;51.068;7.026;2023-04-07T01:40:06;100201.34;;;4.81;71.40
59272;BME280;45043;51.068;7.026;2023-04-07T01:43:07;100201.69;;;4.86;71.88
59272;BME280;45043;51.068;7.026;2023-04-07T01:46:08;100203.63;;;4.92;71.30
59272;BME280;45043;51.068;7.026;2023-04-07T01:49:10;100204.94;;;4.97;71.62
59272;BME280;45043;51.068;7.026;2023-04-07T01:52:12;100199.34;;;5.00;71.39
59272;BME280;45043;51.068;7.026;2023-04-07T01:55:13;100202.28;;;5.05;71.63
59272;BME280;45043;51.068;7.026;2023-04-07T01:58:26;100199.66;;;5.13;71.23
59272;BME280;45043;51.068;7.026;2023-04-07T02:01:27;100191.75;;;5.21;71.47
59272;BME280;45043;51.068;7.026;2023-04-07T02:07:43;100186.97;;;5.33;70.89
59272;BME280;45043;51.068;7.026;2023-04-07T02:10:46;100190.56;;;5.40;70.62
59272;BME280;45043;51.068;7.026;2023-04-07T02:13:48;100192.19;;;5.41;70.75
59272;BME280;45043;51.068;7.026;2023-04-07T02:16:49;100201.91;;;5.40;70.59
59272;BME280;45043;51.068;7.026;2023-04-07T02:19:51;100193.19;;;5.40;70.62
59272;BME280;45043;51.068;7.026;2023-04-07T02:22:53;100195.03;;;5.39;70.77
59272;BME280;45043;51.068;7.026;2023-04-07T02:25:56;100197.81;;;5.46;70.83
59272;BME280;45043;51.068;7.026;2023-04-07T02:29:00;100196.47;;;5.50;70.71
59272;BME280;45043;51.068;7.026;2023-04-07T02:32:01;100196.94;;;5.54;70.25
59272;BME280;45043;51.068;7.026;2023-04-07T02:35:03;100197.44;;;5.57;70.46
59272;BME280;45043;51.068;7.026;2023-04-07T02:38:03;100188.34;;;5.60;70.08
59272;BME280;45043;51.068;7.026;2023-04-07T02:41:04;100185.59;;;5.53;70.25
59272;BME280;45043;51.068;7.026;2023-04-07T02:44:05;100196.94;;;5.54;70.20
59272;BME280;45043;51.068;7.026;2023-04-07T02:47:06;100196.13;;;5.53;69.93
59272;BME280;45043;51.068;7.026;2023-04-07T02:50:06;100203.19;;;5.61;70.22
59272;BME280;45043;51.068;7.026;2023-04-07T02:53:09;100200.19;;;5.64;70.22
59272;BME280;45043;51.068;7.026;2023-04-07T02:56:10;100215.38;;;5.62;70.46
59272;BME280;45043;51.068;7.026;2023-04-07T02:59:10;100204.81;;;5.62;70.39
59272;BME280;45043;51.068;7.026;2023-04-07T03:02:15;100209.91;;;5.63;70.46
59272;BME280;45043;51.068;7.026;2023-04-07T03:05:16;100206.63;;;5.61;70.69
59272;BME280;45043;51.068;7.026;2023-04-07T03:08:16;100204.16;;;5.60;71.02
59272;BME280;45043;51.068;7.026;2023-04-07T03:11:17;100205.50;;;5.56;70.94
59272;BME280;45043;51.068;7.026;2023-04-07T03:14:19;100207.16;;;5.57;71.14
59272;BME280;45043;51.068;7.026;2023-04-07T03:17:22;100203.53;;;5.58;71.18
59272;BME280;45043;51.068;7.026;2023-04-07T03:20:22;100190.19;;;5.51;71.34
59272;BME280;45043;51.068;7.026;2023-04-07T03:23:23;100200.25;;;5.48;71.67
59272;BME280;45043;51.068;7.026;2023-04-07T03:26:24;100212.28;;;5.50;71.58
59272;BME280;45043;51.068;7.026;2023-04-07T03:29:25;100211.13;;;5.45;71.91
59272;BME280;45043;51.068;7.026;2023-04-07T03:32:26;100204.56;;;5.40;72.17
59272;BME280;45043;51.068;7.026;2023-04-07T03:35:26;100209.81;;;5.40;72.34
59272;BME280;45043;51.068;7.026;2023-04-07T03:38:27;100201.91;;;5.40;72.45
59272;BME280;45043;51.068;7.026;2023-04-07T03:41:32;100203.41;;;5.43;72.60
59272;BME280;45043;51.068;7.026;2023-04-07T03:44:33;100201.44;;;5.37;72.93
59272;BME280;45043;51.068;7.026;2023-04-07T03:47:33;100202.25;;;5.37;72.76
59272;BME280;45043;51.068;7.026;2023-04-07T03:50:37;100207.69;;;5.36;73.13
59272;BME280;45043;51.068;7.026;2023-04-07T03:53:46;100209.66;;;5.34;72.98
59272;BME280;45043;51.068;7.026;2023-04-07T03:56:59;100210.38;;;5.28;73.36
59272;BME280;45043;51.068;7.026;2023-04-07T04:00:01;100214.16;;;5.25;73.59
59272;BME280;45043;51.068;7.026;2023-04-07T04:03:04;100217.91;;;5.23;73.92
59272;BME280;45043;51.068;7.026;2023-04-07T04:06:10;100210.81;;;5.23;73.72
59272;BME280;45043;51.068;7.026;2023-04-07T04:09:10;100223.03;;;5.16;73.84
59272;BME280;45043;51.068;7.026;2023-04-07T04:12:17;100228.31;;;5.16;74.11
59272;BME280;45043;51.068;7.026;2023-04-07T04:15:27;100227.16;;;5.10;73.76
59272;BME280;45043;51.068;7.026;2023-04-07T04:18:28;100226.16;;;5.03;74.33
59272;BME280;45043;51.068;7.026;2023-04-07T04:21:28;100213.84;;;4.96;74.61
59272;BME280;45043;51.068;7.026;2023-04-07T04:24:30;100226.19;;;4.95;74.82
59272;BME280;45043;51.068;7.026;2023-04-07T04:27:34;100233.09;;;4.88;74.81
59272;BME280;45043;51.068;7.026;2023-04-07T04:30:40;100235.41;;;4.83;75.57
59272;BME280;45043;51.068;7.026;2023-04-07T04:33:42;100240.00;;;4.81;75.37
59272;BME280;45043;51.068;7.026;2023-04-07T04:36:42;100228.47;;;4.82;75.35
59272;BME280;45043;51.068;7.026;2023-04-07T04:39:43;100247.06;;;4.80;75.27
59272;BME280;45043;51.068;7.026;2023-04-07T04:42:46;100252.34;;;4.80;75.55
59272;BME280;45043;51.068;7.026;2023-04-07T04:45:47;100239.50;;;4.85;75.55
59272;BME280;45043;51.068;7.026;2023-04-07T04:48:50;100252.16;;;4.90;75.18
59272;BME280;45043;51.068;7.026;2023-04-07T04:51:54;100241.16;;;4.94;75.38
59272;BME280;45043;51.068;7.026;2023-04-07T04:54:55;100250.34;;;5.15;74.93
59272;BME280;45043;51.068;7.026;2023-04-07T04:57:56;100251.66;;;5.35;74.58
59272;BME280;45043;51.068;7.026;2023-04-07T05:01:07;100256.56;;;5.55;73.37
59272;BME280;45043;51.068;7.026;2023-04-07T05:04:13;100263.09;;;5.67;72.55
59272;BME280;45043;51.068;7.026;2023-04-07T05:07:21;100265.06;;;5.73;72.04
59272;BME280;45043;51.068;7.026;2023-04-07T05:10:22;100251.22;;;5.71;71.90
59272;BME280;45043;51.068;7.026;2023-04-07T05:13:24;100261.75;;;5.79;70.71
59272;BME280;45043;51.068;7.026;2023-04-07T05:16:25;100264.03;;;5.82;71.03
59272;BME280;45043;51.068;7.026;2023-04-07T05:19:26;100263.06;;;5.83;70.53
59272;BME280;45043;51.068;7.026;2023-04-07T05:22:31;100269.59;;;5.96;69.99
59272;BME280;45043;51.068;7.026;2023-04-07T05:25:32;100266.09;;;6.03;69.81
59272;BME280;45043;51.068;7.026;2023-04-07T05:28:36;100272.47;;;6.17;69.29
59272;BME280;45043;51.068;7.026;2023-04-07T05:31:42;100278.88;;;6.23;68.82
59272;BME280;45043;51.068;7.026;2023-04-07T05:34:46;100277.41;;;6.20;68.57
59272;BME280;45043;51.068;7.026;2023-04-07T05:37:48;100277.19;;;6.30;68.30
59272;BME280;45043;51.068;7.026;2023-04-07T05:40:48;100284.56;;;6.34;68.36
59272;BME280;45043;51.068;7.026;2023-04-07T05:44:00;100280.56;;;6.47;67.79
59272;BME280;45043;51.068;7.026;2023-04-07T05:47:01;100272.63;;;6.47;67.24
59272;BME280;45043;51.068;7.026;2023-04-07T05:50:07;100282.00;;;6.49;67.12
59272;BME280;45043;51.068;7.026;2023-04-07T05:53:09;100293.81;;;6.30;66.93
59272;BME280;45043;51.068;7.026;2023-04-07T05:56:09;100287.31;;;6.18;67.21
59272;BME280;45043;51.068;7.026;2023-04-07T05:59:19;100302.81;;;6.13;67.57
59272;BME280;45043;51.068;7.026;2023-04-07T06:02:19;100293.63;;;6.09;67.57
59272;BME280;45043;51.068;7.026;2023-04-07T06:05:21;100306.19;;;5.99;67.73
59272;BME280;45043;51.068;7.026;2023-04-07T06:08:25;100303.09;;;5.87;68.01
59272;BME280;45043;51.068;7.026;2023-04-07T06:11:26;100296.66;;;5.81;67.98
59272;BME280;45043;51.068;7.026;2023-04-07T06:14:27;100310.50;;;5.83;68.05
59272;BME280;45043;51.068;7.026;2023-04-07T06:17:27;100317.25;;;5.94;68.08
59272;BME280;45043;51.068;7.026;2023-04-07T06:20:28;100320.63;;;6.11;67.60
59272;BME280;45043;51.068;7.026;2023-04-07T06:23:28;100313.38;;;6.13;67.25
59272;BME280;45043;51.068;7.026;2023-04-07T06:26:29;100310.69;;;6.21;67.40
59272;BME280;45043;51.068;7.026;2023-04-07T06:29:31;100319.22;;;6.31;67.02
59272;BME280;45043;51.068;7.026;2023-04-07T06:32:33;100330.75;;;6.38;66.80
59272;BME280;45043;51.068;7.026;2023-04-07T06:35:34;100322.81;;;6.38;66.36
59272;BME280;45043;51.068;7.026;2023-04-07T06:38:35;100329.94;;;6.30;67.01
59272;BME280;45043;51.068;7.026;2023-04-07T06:41:35;100327.47;;;6.28;66.60
59272;BME280;45043;51.068;7.026;2023-04-07T06:44:38;100332.75;;;6.28;66.64
59272;BME280;45043;51.068;7.026;2023-04-07T06:47:38;100333.09;;;6.25;66.68
59272;BME280;45043;51.068;7.026;2023-04-07T06:50:38;100342.66;;;6.26;66.68
59272;BME280;45043;51.068;7.026;2023-04-07T06:53:39;100344.66;;;6.24;66.73
59272;BME280;45043;51.068;7.026;2023-04-07T06:56:41;100344.31;;;6.27;66.18
59272;BME280;45043;51.068;7.026;2023-04-07T06:59:42;100346.63;;;6.22;66.56
59272;BME280;45043;51.068;7.026;2023-04-07T07:02:42;100340.72;;;6.20;66.59
59272;BME280;45043;51.068;7.026;2023-04-07T07:05:43;100350.41;;;6.20;66.70
59272;BME280;45043;51.068;7.026;2023-04-07T07:08:43;100350.63;;;6.10;66.52
59272;BME280;45043;51.068;7.026;2023-04-07T07:11:44;100360.41;;;5.93;67.10
59272;BME280;45043;51.068;7.026;2023-04-07T07:14:45;100365.19;;;5.89;67.52
59272;BME280;45043;51.068;7.026;2023-04-07T07:17:45;100361.25;;;5.85;67.60
59272;BME280;45043;51.068;7.026;2023-04-07T07:20:46;100352.69;;;5.75;67.75
59272;BME280;45043;51.068;7.026;2023-04-07T07:23:46;100363.91;;;5.69;67.60
59272;BME280;45043;51.068;7.026;2023-04-07T07:26:46;100374.78;;;5.74;68.04
59272;BME280;45043;51.068;7.026;2023-04-07T07:29:47;100366.72;;;5.76;68.21
59272;BME280;45043;51.068;7.026;2023-04-07T07:32:48;100367.19;;;5.71;68.13
59272;BME280;45043;51.068;7.026;2023-04-07T07:35:49;100369.34;;;5.76;68.01
59272;BME280;45043;51.068;7.026;2023-04-07T07:38:49;100381.53;;;5.77;67.89
59272;BME280;45043;51.068;7.026;2023-04-07T07:41:51;100381.03;;;5.81;68.31
59272;BME280;45043;51.068;7.026;2023-04-07T07:44:51;100391.53;;;5.89;68.20
59272;BME280;45043;51.068;7.026;2023-04-07T07:47:52;100389.25;;;5.95;67.91
59272;BME280;45043;51.068;7.026;2023-04-07T07:50:52;100392.84;;;5.94;67.72
59272;BME280;45043;51.068;7.026;2023-04-07T07:53:53;100388.91;;;6.06;67.63
59272;BME280;45043;51.068;7.026;2023-04-07T07:56:53;100389.19;;;6.11;67.27
59272;BME280;45043;51.068;7.026;2023-04-07T07:59:54;100395.50;;;6.02;67.30
59272;BME280;45043;51.068;7.026;2023-04-07T08:02:54;100396.66;;;5.91;67.49
59272;BME280;45043;51.068;7.026;2023-04-07T08:05:57;100405.56;;;5.90;67.77
59272;BME280;45043;51.068;7.026;2023-04-07T08:08:58;100403.13;;;5.80;67.99
59272;BME280;45043;51.068;7.026;2023-04-07T08:11:58;100409.72;;;5.76;68.16
59272;BME280;45043;51.068;7.026;2023-04-07T08:14:58;100393.56;;;5.71;68.57
59272;BME280;45043;51.068;7.026;2023-04-07T08:17:59;100407.06;;;5.84;68.26
59272;BME280;45043;51.068;7.026;2023-04-07T08:21:05;100414.94;;;5.93;68.13
59272;BME280;45043;51.068;7.026;2023-04-07T08:24:07;100417.41;;;6.02;68.41
59272;BME280;45043;51.068;7.026;2023-04-07T08:27:08;100418.53;;;6.16;68.09
59272;BME280;45043;51.068;7.026;2023-04-07T08:30:08;100421.81;;;6.18;67.76
59272;BME280;45043;51.068;7.026;2023-04-07T08:33:09;100421.81;;;6.18;68.04
59272;BME280;45043;51.068;7.026;2023-04-07T08:36:10;100423.31;;;6.21;67.90
59272;BME280;45043;51.068;7.026;2023-04-07T08:39:10;100429.41;;;6.21;67.66
59272;BME280;45043;51.068;7.026;2023-04-07T08:42:11;100424.63;;;6.25;67.77
59272;BME280;45043;51.068;7.026;2023-04-07T08:45:15;100442.38;;;6.31;67.57
59272;BME280;45043;51.068;7.026;2023-04-07T08:48:17;100433.31;;;6.33;67.97
59272;BME280;45043;51.068;7.026;2023-04-07T08:51:27;100438.75;;;6.40;67.51
59272;BME280;45043;51.068;7.026;2023-04-07T08:54:28;100444.81;;;6.49;67.18
59272;BME280;45043;51.068;7.026;2023-04-07T08:57:32;100439.19;;;6.52;66.93
59272;BME280;45043;51.068;7.026;2023-04-07T09:00:32;100455.03;;;6.52;67.01
59272;BME280;45043;51.068;7.026;2023-04-07T09:03:33;100451.06;;;6.56;67.25
59272;BME280;45043;51.068;7.026;2023-04-07T09:06:34;100455.66;;;6.62;66.94
59272;BME280;45043;51.068;7.026;2023-04-07T09:09:35;100455.50;;;6.55;66.68
59272;BME280;45043;51.068;7.026;2023-04-07T09:12:36;100452.72;;;6.57;66.37
59272;BME280;45043;51.068;7.026;2023-04-07T09:15:37;100458.66;;;6.51;66.81
59272;BME280;45043;51.068;7.026;2023-04-07T09:18:38;100455.25;;;6.42;66.68
59272;BME280;45043;51.068;7.026;2023-04-07T09:21:49;100462.50;;;6.40;66.85
59272;BME280;45043;51.068;7.026;2023-04-07T09:24:49;100463.97;;;6.34;67.21
59272;BME280;45043;51.068;7.026;2023-04-07T09:28:04;100474.00;;;7.03;64.42
59272;BME280;45043;51.068;7.026;2023-04-07T09:31:04;100463.97;;;6.43;66.76
59272;BME280;45043;51.068;7.026;2023-04-07T09:34:23;100465.34;;;6.22;67.08
59272;BME280;45043;51.068;7.026;2023-04-07T09:37:24;100469.63;;;6.15;67.72
59272;BME280;45043;51.068;7.026;2023-04-07T09:40:25;100464.03;;;6.10;68.07
59272;BME280;45043;51.068;7.026;2023-04-07T09:43:26;100470.31;;;6.09;68.14
59272;BME280;45043;51.068;7.026;2023-04-07T09:46:27;100474.63;;;6.02;68.71
59272;BME280;45043;51.068;7.026;2023-04-07T09:49:28;100478.56;;;5.98;68.71
59272;BME280;45043;51.068;7.026;2023-04-07T09:52:48;100479.56;;;5.88;68.72
59272;BME280;45043;51.068;7.026;2023-04-07T09:55:48;100476.41;;;5.85;68.93
59272;BME280;45043;51.068;7.026;2023-04-07T09:58:50;100477.41;;;5.84;69.02
59272;BME280;45043;51.068;7.026;2023-04-07T10:01:53;100479.56;;;5.80;69.06
59272;BME280;45043;51.068;7.026;2023-04-07T10:04:54;100484.16;;;5.78;69.06
59272;BME280;45043;51.068;7.026;2023-04-07T10:07:55;100480.06;;;5.76;69.14
59272;BME280;45043;51.068;7.026;2023-04-07T10:10:56;100493.06;;;5.69;69.44
59272;BME280;45043;51.068;7.026;2023-04-07T10:13:57;100473.94;;;5.67;69.74
59272;BME280;45043;51.068;7.026;2023-04-07T10:16:59;100481.53;;;5.70;69.83
59272;BME280;45043;51.068;7.026;2023-04-07T10:20:00;100485.97;;;5.70;69.83
59272;BME280;45043;51.068;7.026;2023-04-07T10:23:12;100492.72;;;5.56;70.55
59272;BME280;45043;51.068;7.026;2023-04-07T10:26:23;100500.94;;;5.45;70.93
59272;BME280;45043;51.068;7.026;2023-04-07T10:29:31;100507.50;;;5.40;70.83
59272;BME280;45043;51.068;7.026;2023-04-07T10:32:45;100499.94;;;5.37;70.81
59272;BME280;45043;51.068;7.026;2023-04-07T10:36:05;100517.22;;;5.40;70.72
59272;BME280;45043;51.068;7.026;2023-04-07T10:42:06;100505.25;;;5.54;71.40
59272;BME280;45043;51.068;7.026;2023-04-07T10:45:08;100508.03;;;5.60;71.18
59272;BME280;45043;51.068;7.026;2023-04-07T10:48:10;100505.56;;;5.59;71.06
59272;BME280;45043;51.068;7.026;2023-04-07T10:51:12;100512.47;;;5.60;71.17
59272;BME280;45043;51.068;7.026;2023-04-07T10:54:15;100505.94;;;5.72;71.22
59272;BME280;45043;51.068;7.026;2023-04-07T10:57:16;100518.44;;;5.70;70.85
59272;BME280;45043;51.068;7.026;2023-04-07T11:00:17;100519.09;;;5.80;70.90
59272;BME280;45043;51.068;7.026;2023-04-07T11:03:18;100510.88;;;5.83;70.72
59272;BME280;45043;51.068;7.026;2023-04-07T11:06:18;100516.81;;;6.02;70.37
59272;BME280;45043;51.068;7.026;2023-04-07T11:09:19;100510.38;;;6.12;69.92
59272;BME280;45043;51.068;7.026;2023-04-07T11:12:23;100512.16;;;6.28;69.53
59272;BME280;45043;51.068;7.026;2023-04-07T11:15:23;100515.09;;;6.33;69.62
59272;BME280;45043;51.068;7.026;2023-04-07T11:18:24;100510.84;;;6.24;69.25
59272;BME280;45043;51.068;7.026;2023-04-07T11:21:25;100516.75;;;6.26;69.01
59272;BME280;45043;51.068;7.026;2023-04-07T11:24:33;100525.38;;;6.20;68.69
59272;BME280;45043;51.068;7.026;2023-04-07T11:27:33;100521.88;;;6.11;68.71
59272;BME280;45043;51.068;7.026;2023-04-07T11:30:34;100529.50;;;6.06;68.67
59272;BME280;45043;51.068;7.026;2023-04-07T11:33:35;100510.84;;;6.00;69.35
59272;BME280;45043;51.068;7.026;2023-04-07T11:36:39;100541.03;;;6.13;68.46
59272;BME280;45043;51.068;7.026;2023-04-07T11:39:40;100539.38;;;6.12;68.19
59272;BME280;45043;51.068;7.026;2023-04-07T11:42:41;100535.25;;;6.10;68.30
59272;BME280;45043;51.068;7.026;2023-04-07T11:45:42;100533.94;;;6.06;68.18
59272;BME280;45043;51.068;7.026;2023-04-07T11:48:44;100538.22;;;6.07;68.29
59272;BME280;45043;51.068;7.026;2023-04-07T11:51:46;100546.47;;;5.96;68.64
59272;BME280;45043;51.068;7.026;2023-04-07T11:54:47;100549.28;;;5.94;68.64
59272;BME280;45043;51.068;7.026;2023-04-07T11:57:49;100552.41;;;5.98;68.79
59272;BME280;45043;51.068;7.026;2023-04-07T12:00:58;100549.09;;;5.96;68.75
59272;BME280;45043;51.068;7.026;2023-04-07T12:04:03;100562.78;;;5.99;68.78
59272;BME280;45043;51.068;7.026;2023-04-07T12:07:08;100562.59;;;6.01;68.58
59272;BME280;45043;51.068;7.026;2023-04-07T12:10:20;100561.97;;;5.99;68.67
59272;BME280;45043;51.068;7.026;2023-04-07T12:13:20;100567.72;;;6.02;68.72
59272;BME280;45043;51.068;7.026;2023-04-07T12:16:21;100561.13;;;6.14;68.24
59272;BME280;45043;51.068;7.026;2023-04-07T12:19:26;100556.84;;;6.30;67.71
59272;BME280;45043;51.068;7.026;2023-04-07T12:22:27;100568.56;;;6.27;67.77
59272;BME280;45043;51.068;7.026;2023-04-07T12:25:27;100568.69;;;6.34;67.27
59272;BME280;45043;51.068;7.026;2023-04-07T12:28:28;100560.81;;;6.42;67.10
59272;BME280;45043;51.068;7.026;2023-04-07T12:31:28;100564.06;;;6.52;66.91
59272;BME280;45043;51.068;7.026;2023-04-07T12:34:29;100563.56;;;6.65;66.41
59272;BME280;45043;51.068;7.026;2023-04-07T12:37:29;100570.16;;;6.61;66.50
59272;BME280;45043;51.068;7.026;2023-04-07T12:40:31;100564.38;;;6.66;66.50
59272;BME280;45043;51.068;7.026;2023-04-07T12:43:31;100574.56;;;6.77;66.14
59272;BME280;45043;51.068;7.026;2023-04-07T12:46:32;100583.63;;;6.82;66.12
59272;BME280;45043;51.068;7.026;2023-04-07T12:49:32;100583.31;;;6.85;65.85
59272;BME280;45043;51.068;7.026;2023-04-07T12:52:33;100580.34;;;6.89;65.35
59272;BME280;45043;51.068;7.026;2023-04-07T12:55:35;100580.84;;;6.92;65.13
59272;BME280;45043;51.068;7.026;2023-04-07T12:58:36;100587.25;;;6.81;65.16
59272;BME280;45043;51.068;7.026;2023-04-07T13:01:37;100577.72;;;6.72;65.37
59272;BME280;45043;51.068;7.026;2023-04-07T13:04:38;100575.25;;;6.71;65.42
59272;BME280;45043;51.068;7.026;2023-04-07T13:07:42;100577.72;;;6.72;65.76
59272;BME280;45043;51.068;7.026;2023-04-07T13:10:43;100570.16;;;6.61;65.66
59272;BME280;45043;51.068;7.026;2023-04-07T13:13:43;100579.09;;;6.44;65.57
59272;BME280;45043;51.068;7.026;2023-04-07T13:16:43;100595.59;;;6.29;66.08
59272;BME280;45043;51.068;7.026;2023-04-07T13:19:44;100600.88;;;6.29;66.24
59272;BME280;45043;51.068;7.026;2023-04-07T13:22:47;100604.31;;;6.30;66.50
59272;BME280;45043;51.068;7.026;2023-04-07T13:25:48;100602.84;;;6.27;66.62
59272;BME280;45043;51.068;7.026;2023-04-07T13:28:48;100588.50;;;6.22;66.42
59272;BME280;45043;51.068;7.026;2023-04-07T13:31:48;100603.69;;;6.28;66.41
59272;BME280;45043;51.068;7.026;2023-04-07T13:34:49;100597.72;;;6.26;66.44
59272;BME280;45043;51.068;7.026;2023-04-07T13:37:50;100599.72;;;6.24;66.11
59272;BME280;45043;51.068;7.026;2023-04-07T13:40:50;100592.94;;;6.21;65.92
59272;BME280;45043;51.068;7.026;2023-04-07T13:43:50;100598.56;;;6.26;66.09
59272;BME280;45043;51.068;7.026;2023-04-07T13:46:51;100595.41;;;6.31;66.36
59272;BME280;45043;51.068;7.026;2023-04-07T13:49:52;100594.59;;;6.30;65.78
59272;BME280;45043;51.068;7.026;2023-04-07T13:52:52;100592.94;;;6.37;66.13
59272;BME280;45043;51.068;7.026;2023-04-07T13:55:53;100594.59;;;6.47;65.71
59272;BME280;45043;51.068;7.026;2023-04-07T13:58:53;100600.84;;;6.46;65.65
59272;BME280;45043;51.068;7.026;2023-04-07T14:01:54;100592.94;;;6.46;65.74
59272;BME280;45043;51.068;7.026;2023-04-07T14:04:55;100601.00;;;6.52;65.50
59272;BME280;45043;51.068;7.026;2023-04-07T14:07:56;100601.34;;;6.49;65.54
59272;BME280;45043;51.068;7.026;2023-04-07T14:10:56;100592.28;;;6.44;65.85
59272;BME280;45043;51.068;7.026;2023-04-07T14:13:57;100594.25;;;6.42;65.96
59272;BME280;45043;51.068;7.026;2023-04-07T14:16:58;100606.13;;;6.37;66.09
59272;BME280;45043;51.068;7.026;2023-04-07T14:19:59;100579.41;;;6.49;66.25
59272;BME280;45043;51.068;7.026;2023-04-07T14:22:59;100595.72;;;6.60;66.27
59272;BME280;45043;51.068;7.026;2023-04-07T14:26:00;100604.31;;;6.62;66.45
59272;BME280;45043;51.068;7.026;2023-04-07T14:29:01;100591.09;;;6.71;66.17
59272;BME280;45043;51.068;7.026;2023-04-07T14:32:02;100598.84;;;6.72;65.57
59272;BME280;45043;51.068;7.026;2023-04-07T14:35:02;100616.69;;;6.86;65.55
59272;BME280;45043;51.068;7.026;2023-04-07T14:38:03;100594.69;;;7.02;65.13
59272;BME280;45043;51.068;7.026;2023-04-07T14:41:03;100596.53;;;6.85;64.37
59272;BME280;45043;51.068;7.026;2023-04-07T14:44:04;100618.31;;;6.71;64.79
59272;BME280;45043;51.068;7.026;2023-04-07T14:47:05;100595.88;;;6.83;64.85
59272;BME280;45043;51.068;7.026;2023-04-07T14:50:06;100604.44;;;6.85;64.65
59272;BME280;45043;51.068;7.026;2023-04-07T14:53:07;100607.09;;;6.85;64.48
59272;BME280;45043;51.068;7.026;2023-04-07T14:56:07;100602.63;;;6.94;64.90
59272;BME280;45043;51.068;7.026;2023-04-07T14:59:08;100609.34;;;7.05;64.98
59272;BME280;45043;51.068;7.026;2023-04-07T15:02:08;100606.56;;;7.06;64.58
59272;BME280;45043;51.068;7.026;2023-04-07T15:05:09;100616.63;;;7.03;64.56
59272;BME280;45043;51.068;7.026;2023-04-07T15:08:10;100618.44;;;7.02;64.44
59272;BME280;45043;51.068;7.026;2023-04-07T15:11:11;100617.03;;;7.23;64.27
59272;BME280;45043;51.068;7.026;2023-04-07T15:14:13;100632.84;;;7.39;63.21
59272;BME280;45043;51.068;7.026;2023-04-07T15:17:13;100631.50;;;7.43;62.56
59272;BME280;45043;51.068;7.026;2023-04-07T15:20:14;100641.28;;;7.34;62.44
59272;BME280;45043;51.068;7.026;2023-04-07T15:23:14;100630.22;;;7.31;62.39
59272;BME280;45043;51.068;7.026;2023-04-07T15:26:15;100636.50;;;7.30;62.34
59272;BME280;45043;51.068;7.026;2023-04-07T15:29:16;100634.69;;;7.30;62.23
59272;BME280;45043;51.068;7.026;2023-04-07T15:32:17;100638.00;;;7.32;62.37
59272;BME280;45043;51.068;7.026;2023-04-07T15:35:17;100633.41;;;7.18;62.25
59272;BME280;45043;51.068;7.026;2023-04-07T15:38:17;100629.84;;;7.03;62.31
59272;BME280;45043;51.068;7.026;2023-04-07T15:41:18;100638.91;;;7.00;62.56
59272;BME280;45043;51.068;7.026;2023-04-07T15:44:18;100643.03;;;7.03;63.21
59272;BME280;45043;51.068;7.026;2023-04-07T15:47:19;100626.53;;;7.01;63.49
59272;BME280;45043;51.068;7.026;2023-04-07T15:50:20;100639.75;;;7.09;63.33
59272;BME280;45043;51.068;7.026;2023-04-07T15:53:21;100638.28;;;6.98;63.37
59272;BME280;45043;51.068;7.026;2023-04-07T15:56:21;100644.03;;;7.02;63.34
59272;BME280;45043;51.068;7.026;2023-04-07T15:59:23;100646.63;;;7.18;63.37
59272;BME280;45043;51.068;7.026;2023-04-07T16:02:24;100638.97;;;7.40;63.17
59272;BME280;45043;51.068;7.026;2023-04-07T16:05:24;100634.25;;;8.12;61.47
59272;BME280;45043;51.068;7.026;2023-04-07T16:08:25;100640.53;;;8.57;60.35
59272;BME280;45043;51.068;7.026;2023-04-07T16:11:25;100633.31;;;8.51;60.40
59272;BME280;45043;51.068;7.026;2023-04-07T16:14:26;100632.81;;;8.32;60.53
59272;BME280;45043;51.068;7.026;2023-04-07T16:17:28;100645.78;;;7.96;61.03